createdAt,value
2018-09-19T00:01:47.637Z,17.31
2018-09-19T00:04:16.777Z,17.27
2018-09-19T00:06:46.114Z,17.24
2018-09-19T00:09:15.934Z,17.23
2018-09-19T00:11:45.807Z,17.19
2018-09-19T00:14:15.462Z,17.15
2018-09-19T00:16:45.256Z,17.15
2018-09-19T00:19:15.054Z,17.15
2018-09-19T00:21:44.084Z,17.11
2018-09-19T00:24:12.840Z,17.10
2018-09-19T00:26:42.262Z,17.08
2018-09-19T00:29:11.146Z,17.06
2018-09-19T00:31:40.271Z,17.06
2018-09-19T00:34:09.073Z,17.05
2018-09-19T00:36:37.856Z,17.05
2018-09-19T00:39:07.930Z,17.03
2018-09-19T00:41:36.641Z,17.02
2018-09-19T00:44:05.817Z,17.01
2018-09-19T00:46:34.610Z,17.02
2018-09-19T00:49:04.747Z,17.00
2018-09-19T00:51:33.546Z,16.98
2018-09-19T00:54:02.312Z,16.98
2018-09-19T00:56:31.310Z,16.96
2018-09-19T00:59:00.408Z,16.94
2018-09-19T01:01:29.560Z,16.93
2018-09-19T01:03:58.742Z,16.92
2018-09-19T01:06:28.110Z,16.93
2018-09-19T01:08:57.486Z,16.91
2018-09-19T01:11:26.950Z,16.91
2018-09-19T01:13:56.407Z,16.90
2018-09-19T01:16:37.899Z,16.89
2018-09-19T01:19:06.704Z,16.89
2018-09-19T01:21:36.412Z,16.86
2018-09-19T01:24:05.505Z,16.83
2018-09-19T01:26:34.647Z,16.76
2018-09-19T01:29:03.381Z,16.73
2018-09-19T01:31:32.383Z,16.72
2018-09-19T01:34:01.482Z,16.70
2018-09-19T01:36:30.274Z,16.67
2018-09-19T01:38:59.335Z,16.67
2018-09-19T01:41:28.366Z,16.67
2018-09-19T01:43:57.141Z,16.65
2018-09-19T01:46:26.199Z,16.62
2018-09-19T01:48:55.452Z,16.59
2018-09-19T01:51:24.532Z,16.58
2018-09-19T01:53:53.554Z,16.52
2018-09-19T01:56:22.239Z,16.50
2018-09-19T01:58:51.008Z,16.45
2018-09-19T02:01:19.775Z,16.39
2018-09-19T02:03:48.622Z,16.38
2018-09-19T02:06:17.644Z,16.37
2018-09-19T02:08:46.727Z,16.34
2018-09-19T02:11:15.508Z,16.33
2018-09-19T02:13:44.237Z,16.29
2018-09-19T02:16:13.640Z,16.25
2018-09-19T02:18:42.399Z,16.20
2018-09-19T02:21:11.187Z,16.19
2018-09-19T02:23:40.227Z,16.15
2018-09-19T02:26:13.187Z,16.14
2018-09-19T02:28:42.097Z,16.10
2018-09-19T02:31:10.746Z,16.04
2018-09-19T02:33:39.484Z,16.04
2018-09-19T02:36:08.650Z,16.02
2018-09-19T02:38:37.427Z,16.01
2018-09-19T02:41:07.027Z,15.95
2018-09-19T02:43:42.017Z,15.92
2018-09-19T02:46:11.224Z,15.87
2018-09-19T02:48:40.283Z,15.82
2018-09-19T02:51:09.057Z,15.81
2018-09-19T02:53:38.090Z,15.78
2018-09-19T02:56:07.493Z,15.77
2018-09-19T02:58:36.532Z,15.71
2018-09-19T03:01:05.793Z,15.66
2018-09-19T03:03:35.164Z,15.66
2018-09-19T03:06:04.455Z,15.65
2018-09-19T03:08:33.179Z,15.65
2018-09-19T03:11:02.037Z,15.63
2018-09-19T03:13:31.138Z,15.64
2018-09-19T03:16:00.164Z,15.63
2018-09-19T03:18:28.947Z,15.62
2018-09-19T03:20:57.765Z,15.63
2018-09-19T03:23:26.793Z,15.65
2018-09-19T03:25:55.600Z,15.67
2018-09-19T03:28:24.702Z,15.67
2018-09-19T03:30:54.341Z,15.65
2018-09-19T03:33:23.392Z,15.60
2018-09-19T03:35:52.715Z,15.54
2018-09-19T03:38:21.787Z,15.50
2018-09-19T03:40:50.921Z,15.49
2018-09-19T03:43:19.671Z,15.52
2018-09-19T03:45:48.420Z,15.48
2018-09-19T03:48:17.293Z,15.48
2018-09-19T03:50:46.352Z,15.45
2018-09-19T03:53:15.689Z,15.41
2018-09-19T03:55:44.756Z,15.38
2018-09-19T03:58:13.536Z,15.34
2018-09-19T04:00:42.514Z,15.36
2018-09-19T04:03:11.292Z,15.33
2018-09-19T04:05:40.349Z,15.32
2018-09-19T04:08:09.547Z,15.30
2018-09-19T04:10:38.363Z,15.28
2018-09-19T04:13:07.485Z,15.29
2018-09-19T04:15:36.570Z,15.26
2018-09-19T04:18:05.347Z,15.26
2018-09-19T04:20:34.307Z,15.23
2018-09-19T04:23:03.918Z,15.19
2018-09-19T04:25:32.884Z,15.17
2018-09-19T04:28:01.918Z,15.17
2018-09-19T04:30:30.977Z,15.19
2018-09-19T04:33:00.016Z,15.14
2018-09-19T04:35:28.751Z,15.10
2018-09-19T04:37:57.506Z,15.06
2018-09-19T04:40:26.834Z,15.04
2018-09-19T04:42:56.155Z,15.04
2018-09-19T04:45:24.849Z,15.04
2018-09-19T04:47:54.214Z,15.03
2018-09-19T04:50:23.530Z,15.04
2018-09-19T04:52:53.187Z,15.06
2018-09-19T04:55:22.212Z,15.02
2018-09-19T04:57:50.950Z,15.00
2018-09-19T05:00:19.954Z,14.96
2018-09-19T05:02:48.968Z,14.93
2018-09-19T05:05:17.859Z,14.93
2018-09-19T05:07:47.157Z,14.93
2018-09-19T05:10:15.922Z,14.92
2018-09-19T05:12:44.661Z,14.93
2018-09-19T05:15:13.372Z,14.95
2018-09-19T05:17:42.141Z,14.95
2018-09-19T05:20:10.866Z,14.92
2018-09-19T05:22:40.058Z,14.90
2018-09-19T05:25:08.827Z,14.85
2018-09-19T05:27:38.155Z,14.78
2018-09-19T05:30:06.896Z,14.75
2018-09-19T05:32:35.916Z,14.73
2018-09-19T05:35:05.066Z,14.70
2018-09-19T05:37:34.441Z,14.71
2018-09-19T05:40:03.220Z,14.73
2018-09-19T05:42:31.911Z,14.76
2018-09-19T05:45:01.213Z,14.82
2018-09-19T05:47:30.386Z,14.89
2018-09-19T05:49:59.095Z,14.93
2018-09-19T05:52:27.979Z,14.96
2018-09-19T05:54:58.245Z,14.99
2018-09-19T05:57:27.931Z,15.00
2018-09-19T05:59:56.648Z,15.02
2018-09-19T06:02:25.386Z,15.04
2018-09-19T06:04:54.191Z,15.08
2018-09-19T06:07:23.195Z,15.12
2018-09-19T06:09:52.527Z,15.14
2018-09-19T06:12:21.513Z,15.20
2018-09-19T06:14:50.731Z,15.25
2018-09-19T06:17:19.790Z,15.29
2018-09-19T06:19:48.872Z,15.32
2018-09-19T06:22:17.569Z,15.36
2018-09-19T06:24:46.307Z,15.44
2018-09-19T06:27:15.057Z,15.46
2018-09-19T06:29:43.794Z,15.52
2018-09-19T06:32:12.828Z,15.59
2018-09-19T06:34:42.199Z,15.65
2018-09-19T06:37:11.168Z,15.74
2018-09-19T06:39:40.467Z,15.84
2018-09-19T06:42:09.583Z,15.92
2018-09-19T06:44:38.317Z,16.01
2018-09-19T06:47:07.083Z,16.07
2018-09-19T06:49:36.093Z,16.16
2018-09-19T06:52:04.931Z,16.24
2018-09-19T06:54:33.942Z,16.35
2018-09-19T06:57:02.670Z,16.48
2018-09-19T06:59:31.749Z,16.61
2018-09-19T07:02:00.597Z,16.70
2018-09-19T07:04:29.674Z,16.80
2018-09-19T07:06:58.979Z,16.86
2018-09-19T07:09:28.187Z,16.93
2018-09-19T07:11:56.913Z,16.99
2018-09-19T07:14:26.042Z,17.06
2018-09-19T07:16:55.058Z,17.15
2018-09-19T07:19:23.858Z,17.23
2018-09-19T07:21:52.877Z,17.33
2018-09-19T07:24:22.528Z,17.45
2018-09-19T07:26:51.564Z,17.55
2018-09-19T07:29:20.294Z,17.66
2018-09-19T07:31:49.392Z,17.76
2018-09-19T07:34:18.175Z,17.87
2018-09-19T07:36:46.942Z,18.01
2018-09-19T07:39:16.025Z,18.13
2018-09-19T07:57:39.556Z,19.28
2018-09-19T08:00:08.346Z,19.42
2018-09-19T08:02:37.746Z,19.56
2018-09-19T08:05:06.578Z,19.71
2018-09-19T08:07:35.967Z,19.85
2018-09-19T08:10:05.081Z,19.96
2018-09-19T08:12:34.265Z,20.04
2018-09-19T08:15:03.137Z,20.12
2018-09-19T08:17:32.581Z,20.24
2018-09-19T08:20:01.656Z,20.38
2018-09-19T08:22:30.858Z,20.47
2018-09-19T08:25:00.139Z,20.53
2018-09-19T08:27:28.962Z,20.66
2018-09-19T08:29:57.724Z,20.83
2018-09-19T08:32:26.737Z,20.97
2018-09-19T08:34:55.922Z,21.10
2018-09-19T08:37:25.030Z,21.28
2018-09-19T08:39:53.817Z,21.45
2018-09-19T08:42:22.672Z,21.61
2018-09-19T08:44:51.462Z,21.74
2018-09-19T08:47:20.289Z,21.86
2018-09-19T08:49:49.401Z,21.97
2018-09-19T08:52:18.461Z,22.12
2018-09-19T08:54:47.589Z,22.28
2018-09-19T08:57:16.694Z,22.44
2018-09-19T08:59:45.757Z,22.59
2018-09-19T09:02:14.929Z,22.74
2018-09-19T09:04:44.050Z,22.86
2018-09-19T09:07:12.890Z,23.02
2018-09-19T09:09:42.069Z,23.10
2018-09-19T09:12:10.988Z,23.17
2018-09-19T09:14:40.422Z,23.27
2018-09-19T09:17:09.346Z,23.36
2018-09-19T09:19:38.665Z,23.40
2018-09-19T09:22:08.795Z,23.50
2018-09-19T09:24:37.664Z,23.62
2018-09-19T09:27:07.238Z,23.76
2018-09-19T09:29:36.114Z,23.91
2018-09-19T09:32:05.404Z,24.10
2018-09-19T09:34:34.577Z,24.25
2018-09-19T09:37:04.417Z,24.40
2018-09-19T09:39:33.668Z,24.50
2018-09-19T09:42:02.589Z,24.54
2018-09-19T09:44:31.420Z,24.63
2018-09-19T09:47:00.976Z,24.81
2018-09-19T09:49:30.257Z,24.93
2018-09-19T09:51:59.173Z,24.98
2018-09-19T09:54:28.030Z,24.94
2018-09-19T09:56:57.545Z,25.02
2018-09-19T09:59:26.397Z,25.14
2018-09-19T10:01:55.344Z,25.29
2018-09-19T10:04:24.652Z,25.47
2018-09-19T10:06:53.926Z,25.44
2018-09-19T10:09:22.974Z,25.53
2018-09-19T10:11:51.917Z,25.70
2018-09-19T10:14:20.818Z,25.77
2018-09-19T10:16:50.039Z,25.76
2018-09-19T10:19:18.894Z,25.67
2018-09-19T10:21:47.793Z,25.57
2018-09-19T10:24:16.659Z,25.39
2018-09-19T10:26:45.842Z,25.45
2018-09-19T10:29:14.981Z,25.44
2018-09-19T10:31:43.896Z,25.48
2018-09-19T10:34:12.829Z,25.48
2018-09-19T10:36:42.031Z,25.43
2018-09-19T10:39:10.917Z,25.42
2018-09-19T10:41:40.421Z,25.45
2018-09-19T10:44:09.388Z,25.41
2018-09-19T10:46:38.372Z,25.32
2018-09-19T10:49:07.269Z,25.32
2018-09-19T10:51:36.515Z,25.32
2018-09-19T10:54:06.122Z,25.36
2018-09-19T10:56:35.293Z,25.56
2018-09-19T10:59:04.437Z,25.96
2018-09-19T11:01:33.315Z,26.42
2018-09-19T11:04:02.418Z,26.57
2018-09-19T11:06:31.327Z,26.56
2018-09-19T11:09:00.286Z,26.68
2018-09-19T11:11:29.193Z,26.60
2018-09-19T11:13:58.392Z,26.67
2018-09-19T11:16:27.399Z,26.68
2018-09-19T11:18:56.566Z,26.65
2018-09-19T11:21:26.272Z,26.60
2018-09-19T11:23:55.254Z,26.35
2018-09-19T11:26:24.207Z,26.37
2018-09-19T11:28:53.083Z,26.44
2018-09-19T11:31:22.563Z,26.42
2018-09-19T11:33:51.518Z,26.72
2018-09-19T11:36:20.798Z,26.88
2018-09-19T11:38:51.431Z,26.79
2018-09-19T11:41:21.122Z,26.81
2018-09-19T11:43:50.030Z,26.69
2018-09-19T11:46:18.914Z,26.81
2018-09-19T11:48:47.721Z,27.03
2018-09-19T11:51:16.685Z,27.26
2018-09-19T11:53:46.602Z,27.45
2018-09-19T11:56:16.003Z,27.66
2018-09-19T11:58:45.089Z,27.91
2018-09-19T12:01:15.206Z,28.19
2018-09-19T12:03:44.322Z,28.40
2018-09-19T12:06:13.695Z,28.64
2018-09-19T12:08:42.584Z,28.68
2018-09-19T12:11:11.661Z,28.85
2018-09-19T12:13:40.780Z,28.57
2018-09-19T12:16:10.006Z,28.04
2018-09-19T12:18:40.256Z,27.95
2018-09-19T12:21:09.458Z,28.14
2018-09-19T12:23:41.849Z,28.48
2018-09-19T12:26:10.776Z,28.86
2018-09-19T12:28:40.846Z,29.03
2018-09-19T12:31:10.553Z,29.13
2018-09-19T12:33:41.070Z,29.05
2018-09-19T12:36:10.164Z,28.77
2018-09-19T12:38:39.617Z,28.54
2018-09-19T12:41:08.688Z,28.55
2018-09-19T12:43:38.404Z,28.64
2018-09-19T12:46:07.531Z,28.88
2018-09-19T12:48:37.050Z,28.87
2018-09-19T12:51:06.286Z,28.93
2018-09-19T12:53:35.135Z,28.74
2018-09-19T12:56:05.243Z,28.91
2018-09-19T12:58:35.724Z,29.08
2018-09-19T13:01:04.817Z,28.81
2018-09-19T13:03:34.963Z,28.79
2018-09-19T13:06:04.097Z,28.90
2018-09-19T13:08:33.546Z,29.05
2018-09-19T13:11:02.708Z,29.18
2018-09-19T13:13:31.588Z,29.29
2018-09-19T13:16:00.982Z,29.26
2018-09-19T13:18:30.100Z,29.38
2018-09-19T13:20:59.548Z,29.42
2018-09-19T13:23:28.404Z,29.38
2018-09-19T13:25:57.543Z,29.41
2018-09-19T13:28:26.644Z,29.28
2018-09-19T13:30:56.379Z,29.25
2018-09-19T13:33:25.808Z,29.22
2018-09-19T13:35:54.892Z,29.26
2018-09-19T13:38:23.768Z,29.41
2018-09-19T13:40:52.888Z,29.42
2018-09-19T13:43:21.795Z,29.32
2018-09-19T13:45:51.024Z,29.34
2018-09-19T13:48:20.480Z,29.50
2018-09-19T13:51:11.652Z,29.26
2018-09-19T13:53:40.541Z,29.12
2018-09-19T13:56:09.406Z,29.21
2018-09-19T13:58:38.184Z,29.10
2018-09-19T14:01:07.306Z,29.07
2018-09-19T14:03:36.483Z,29.08
2018-09-19T14:06:05.289Z,29.19
2018-09-19T14:08:34.175Z,29.28
2018-09-19T14:11:02.958Z,29.11
2018-09-19T14:13:31.866Z,29.15
2018-09-19T14:16:00.980Z,29.19
2018-09-19T14:18:30.093Z,29.27
2018-09-19T14:20:59.227Z,29.06
2018-09-19T14:23:28.282Z,28.99
2018-09-19T14:25:57.613Z,29.02
2018-09-19T14:28:26.496Z,29.04
2018-09-19T14:30:55.796Z,28.87
2018-09-19T14:33:24.725Z,28.87
2018-09-19T14:35:53.976Z,28.92
2018-09-19T14:38:22.831Z,29.01
2018-09-19T14:40:52.192Z,29.00
2018-09-19T14:43:21.401Z,28.72
2018-09-19T14:45:50.677Z,28.61
2018-09-19T14:48:19.586Z,28.59
2018-09-19T14:50:48.856Z,28.69
2018-09-19T14:53:17.720Z,28.56
2018-09-19T14:55:47.016Z,28.44
2018-09-19T14:58:15.826Z,28.27
2018-09-19T15:00:44.677Z,28.22
2018-09-19T15:03:13.522Z,28.40
2018-09-19T15:05:42.641Z,28.48
2018-09-19T15:08:11.558Z,28.44
2018-09-19T15:10:40.696Z,28.29
2018-09-19T15:13:10.189Z,28.17
2018-09-19T15:15:39.229Z,28.13
2018-09-19T15:18:08.358Z,28.07
2018-09-19T15:20:37.545Z,27.85
2018-09-19T15:23:07.467Z,27.49
2018-09-19T15:25:36.669Z,27.36
2018-09-19T15:28:05.552Z,27.21
2018-09-19T15:30:34.632Z,27.11
2018-09-19T15:33:04.365Z,27.01
2018-09-19T15:35:33.547Z,26.80
2018-09-19T15:38:02.756Z,26.68
2018-09-19T15:40:31.884Z,26.61
2018-09-19T15:43:00.740Z,26.57
2018-09-19T15:45:29.576Z,26.54
2018-09-19T15:47:58.763Z,26.57
2018-09-19T15:50:27.654Z,26.48
2018-09-19T15:52:56.456Z,26.42
2018-09-19T15:55:25.626Z,26.28
2018-09-19T15:57:54.801Z,26.10
2018-09-19T16:00:23.698Z,25.91
2018-09-19T16:02:53.024Z,25.80
2018-09-19T16:05:22.490Z,25.69
2018-09-19T16:07:51.580Z,25.50
2018-09-19T16:10:20.364Z,25.44
2018-09-19T16:12:49.758Z,25.37
2018-09-19T16:15:18.599Z,25.31
2018-09-19T16:17:47.461Z,25.16
2018-09-19T16:20:16.619Z,25.10
2018-09-19T16:22:45.463Z,24.95
2018-09-19T16:25:14.644Z,24.89
2018-09-19T16:27:44.014Z,24.82
2018-09-19T16:30:13.127Z,24.74
2018-09-19T16:32:42.275Z,24.72
2018-09-19T16:35:11.139Z,24.66
2018-09-19T16:37:40.150Z,24.49
2018-09-19T16:40:09.005Z,24.47
2018-09-19T16:42:38.402Z,24.46
2018-09-19T16:45:07.821Z,24.42
2018-09-19T16:47:36.661Z,24.37
2018-09-19T16:50:06.117Z,24.30
2018-09-19T16:52:34.920Z,24.16
2018-09-19T16:55:03.752Z,24.10
2018-09-19T16:57:32.825Z,24.05
2018-09-19T17:00:01.730Z,24.02
2018-09-19T17:02:30.605Z,23.97
2018-09-19T17:04:59.701Z,23.93
2018-09-19T17:07:28.493Z,23.90
2018-09-19T17:09:57.652Z,23.78
2018-09-19T17:12:26.842Z,23.72
2018-09-19T17:14:56.221Z,23.64
2018-09-19T17:17:25.297Z,23.57
2018-09-19T17:19:54.408Z,23.54
2018-09-19T17:22:25.268Z,23.51
2018-09-19T17:24:54.094Z,23.42
2018-09-19T17:27:23.145Z,23.37
2018-09-19T17:29:52.077Z,23.28
2018-09-19T17:32:21.093Z,23.15
2018-09-19T17:34:50.165Z,23.12
2018-09-19T17:37:19.659Z,23.06
2018-09-19T17:39:48.438Z,23.02
2018-09-19T17:42:17.268Z,22.97
2018-09-19T17:44:47.658Z,22.97
2018-09-19T17:47:16.652Z,22.94
2018-09-19T17:49:45.556Z,22.88
2018-09-19T17:52:14.732Z,22.73
2018-09-19T17:54:43.937Z,22.65
2018-09-19T17:57:12.863Z,22.61
2018-09-19T17:59:42.268Z,22.52
2018-09-19T18:02:11.651Z,22.45
2018-09-19T18:04:40.465Z,22.40
2018-09-19T18:07:10.308Z,22.36
2018-09-19T18:09:39.965Z,22.23
2018-09-19T18:12:08.757Z,22.18
2018-09-19T18:14:38.018Z,22.13
2018-09-19T18:17:06.989Z,22.11
2018-09-19T18:19:35.829Z,22.04
2018-09-19T18:22:04.981Z,21.99
2018-09-19T18:24:33.800Z,21.96
2018-09-19T18:27:02.635Z,21.92
2018-09-19T18:29:31.501Z,21.87
2018-09-19T18:32:00.553Z,21.81
2018-09-19T18:34:29.357Z,21.75
2018-09-19T18:36:58.192Z,21.69
2018-09-19T18:39:27.063Z,21.64
2018-09-19T18:41:55.833Z,21.64
2018-09-19T18:44:24.941Z,21.60
2018-09-19T18:46:54.410Z,21.56
2018-09-19T18:49:23.569Z,21.53
2018-09-19T18:51:52.451Z,21.49
2018-09-19T18:54:21.287Z,21.44
2018-09-19T18:56:51.016Z,21.38
2018-09-19T18:59:20.088Z,21.30
2018-09-19T19:01:49.172Z,21.28
2018-09-19T19:04:18.008Z,21.23
2018-09-19T19:06:46.862Z,21.19
2018-09-19T19:09:16.384Z,21.16
2018-09-19T19:11:45.225Z,21.13
2018-09-19T19:14:14.681Z,21.10
2018-09-19T19:16:44.935Z,21.08
2018-09-19T19:19:13.784Z,21.06
2018-09-19T19:21:43.107Z,21.00
2018-09-19T19:24:12.176Z,20.96
2018-09-19T19:26:40.992Z,20.91
2018-09-19T19:29:10.058Z,20.85
2018-09-19T19:31:39.207Z,20.81
2018-09-19T19:34:08.359Z,20.79
2018-09-19T19:36:38.383Z,20.75
2018-09-19T19:39:09.744Z,20.68
2018-09-19T19:41:38.831Z,20.62
2018-09-19T19:44:07.722Z,20.55
2018-09-19T19:46:37.027Z,20.50
2018-09-19T19:49:06.168Z,20.46
2018-09-19T19:51:34.973Z,20.43
2018-09-19T19:54:03.801Z,20.39
2018-09-19T19:56:32.661Z,20.34
2018-09-19T19:59:02.076Z,20.27
2018-09-19T20:01:30.860Z,20.23
2018-09-19T20:03:59.654Z,20.17
2018-09-19T20:06:29.424Z,20.16
2018-09-19T20:08:58.589Z,20.17
2018-09-19T20:11:27.849Z,20.17
2018-09-19T20:13:56.659Z,20.17
2018-09-19T20:16:26.285Z,20.13
2018-09-19T20:18:58.396Z,20.11
2018-09-19T20:21:27.533Z,20.13
2018-09-19T20:23:56.498Z,20.12
2018-09-19T20:26:26.289Z,20.09
2018-09-19T20:28:55.083Z,20.11
2018-09-19T20:31:24.570Z,20.12
2018-09-19T20:33:53.817Z,20.12
2018-09-19T20:36:22.973Z,20.11
2018-09-19T20:38:58.689Z,20.10
2018-09-19T20:41:27.831Z,20.09
2018-09-19T20:43:56.876Z,20.08
2018-09-19T20:46:25.709Z,20.12
2018-09-19T20:48:55.368Z,20.11
2018-09-19T20:51:24.395Z,20.14
2018-09-19T20:53:53.512Z,20.15
2018-09-19T20:56:22.325Z,20.14
2018-09-19T20:58:51.913Z,20.14
2018-09-19T21:01:21.883Z,20.13
2018-09-19T21:03:51.041Z,20.15
2018-09-19T21:06:19.838Z,20.17
2018-09-19T21:08:49.000Z,20.17
2018-09-19T21:11:17.791Z,20.15
2018-09-19T21:13:46.887Z,20.14
2018-09-19T21:16:15.974Z,20.10
2018-09-19T21:18:45.067Z,20.06
2018-09-19T21:21:14.143Z,20.03
2018-09-19T21:23:43.214Z,20.01
2018-09-19T21:26:12.023Z,20.01
2018-09-19T21:28:41.146Z,19.99
2018-09-19T21:31:10.624Z,19.98
2018-09-19T21:33:39.957Z,20.01
2018-09-19T21:36:09.615Z,20.00
2018-09-19T21:38:38.393Z,19.98
2018-09-19T21:41:07.985Z,19.97
2018-09-19T21:43:37.064Z,19.94
2018-09-19T21:46:06.380Z,19.91
2018-09-19T21:48:35.216Z,19.90
2018-09-19T21:51:03.977Z,19.85
2018-09-19T21:53:33.013Z,19.82
2018-09-19T21:56:01.906Z,19.79
2018-09-19T21:58:30.704Z,19.76
2018-09-19T22:01:05.050Z,19.76
2018-09-19T22:03:33.901Z,19.69
2018-09-19T22:06:03.693Z,19.66
2018-09-19T22:08:32.841Z,19.64
2018-09-19T22:11:01.964Z,19.60
2018-09-19T22:13:30.996Z,19.56
2018-09-19T22:15:59.877Z,19.49
2018-09-19T22:18:29.266Z,19.45
2018-09-19T22:20:58.190Z,19.42
2018-09-19T22:23:28.437Z,19.38
2018-09-19T22:25:58.246Z,19.31
2018-09-19T22:28:27.342Z,19.26
2018-09-19T22:30:56.222Z,19.25
2018-09-19T22:33:25.399Z,19.20
2018-09-19T22:35:54.578Z,19.17
2018-09-19T22:38:23.996Z,19.12
2018-09-19T22:40:53.198Z,19.12
2018-09-19T22:43:23.219Z,19.12
2018-09-19T22:45:52.364Z,19.12
2018-09-19T22:48:21.555Z,19.13
2018-09-19T22:50:50.346Z,19.11
2018-09-19T22:53:19.107Z,19.15
2018-09-19T22:55:47.949Z,19.12
2018-09-19T22:58:17.068Z,19.12
2018-09-19T23:00:45.862Z,19.13
2018-09-19T23:03:14.955Z,19.13
2018-09-19T23:05:43.764Z,19.14
2018-09-19T23:08:12.583Z,19.13
2018-09-19T23:10:41.712Z,19.13
2018-09-19T23:13:10.833Z,19.13
2018-09-19T23:15:39.924Z,19.12
2018-09-19T23:18:09.431Z,19.10
2018-09-19T23:20:38.594Z,19.10
2018-09-19T23:23:07.697Z,19.07
2018-09-19T23:25:36.709Z,19.06
2018-09-19T23:28:05.603Z,19.07
2018-09-19T23:30:35.324Z,19.07
2018-09-19T23:33:04.840Z,19.07
2018-09-19T23:35:34.672Z,19.05
2018-09-19T23:38:04.047Z,19.05
2018-09-19T23:40:33.157Z,19.04
2018-09-19T23:43:02.644Z,19.03
2018-09-19T23:45:32.013Z,18.99
2018-09-19T23:48:01.149Z,18.97
2018-09-19T23:50:30.652Z,18.97
2018-09-19T23:52:59.552Z,18.92
2018-09-19T23:55:28.581Z,18.89
2018-09-19T23:57:57.658Z,18.86
